Osceola Mills, PA

6:35 AM EDT on May 27, 2015 (GMT -0400)
Du Bois-Jefferson County | | Change Station
CLOSE
Current Station
Airport
Location: Du Bois,
Elevation: 1818 ft
Nearby Weather Stations

Elev 1818 ft 41.18 °N, 78.90 °W | Updated 42 minutes ago

Partly Cloudy
Partly Cloudy
66 °F
Feels Like 66 °F
N
8
Wind Variable Wind from SW

Today
High -- | Low -- °F
--% Chance of Precip.
Yesterday
High -- | Low -- °F
Precip. -- in
5:46 AM 8:34 PM
Waxing Gibbous, 66% visible
Pressure 30.07 in
Visibility 10.0 miles
Clouds Few 12000 ft
Dew Point 61 °F
Humidity 84%
Rainfall 0.00 in
Snow Depth Not available.
UV 0 out of 12
Pollen 7.50 out of 12
Air Quality Not available.
Flu Activity Sporadic
METAR KDUJ 270953Z AUTO 22007KT 10SM FEW120 19/16 A3010 RMK AO2 SLP182 T01890161

More Conditions Fewer Conditions

Pressure 30.07 in
Visibility 10.0 miles
Clouds Few 12000 ft
Dew Point 61 °F
Humidity 84%
Rainfall 0.00 in
Snow Depth Not available.
UV 0 out of 12
Pollen 7.50 out of 12
Air Quality Not available.
Flu Activity Sporadic
METAR KDUJ 270953Z AUTO 22007KT 10SM FEW120 19/16 A3010 RMK AO2 SLP182 T01890161

More Conditions Fewer Conditions

10-Day Weather Forecast

Almanac

Astronomy

May. 27, 2015 Rise Set
Actual Time
Civil Twilight
Nautical Twilight
Astronomical Twilight
Moon
Length of Visible Light
Length of Day
Tomorrow will be .
, % of the Moon is Illuminated

Today's Extremes

State Highs State Lows

Community

WunderPhotos

Upload Photos

1,824,635 photos uploaded!

WunderBlogs® & News

Nearby

Air Quality

  Air Quality AQ Index Pollutant
Not available.

Snow Depth

Station Depth Elevation

Earthquake Activity

City Distance Mag. Time & Date
Minimum magnitude displayed is 2.5.

Coastal Water Temperatures

Place Temperature

Stations

Nearby Weather Stations

Station Location Temp. Windchill Dew Point Humidity Wind Precip. Elev Updated Type